Flight Track Log - Related Links

Times and Time Zones

All times are in EDT time to prevent confusion due to time zone crossing. See the UAL33 flight status page for this flight to view local times or setup timezone preferences in your user account.

Time Position Orientation Groundspeed Altitude Reporting Facility
EDT Latitude Longitude Course Direction KTS MPH feet Rate Location/Type
Wed 10:31:16 PM 41.9690 -87.9200 271° West 159 183 1,300  Level FlightAware ADS-B
Wed 10:31:51 PM 41.9580 -87.9510 244° Southwest 188 216 2,600 2,441 Climbing FlightAware ADS-B
Wed 10:32:15 PM 41.9410 -87.9750 226° Southwest 225 259 3,700 2,769 Climbing FlightAware ADS-B
Wed 10:32:43 PM 41.9190 -88.0060 226° Southwest 258 297 5,000 3,261 Climbing FlightAware ADS-B
Wed 10:33:01 PM 41.9020 -88.0240 218° Southwest 263 303 6,200 4,000 Climbing FlightAware ADS-B
Wed 10:33:28 PM 41.8720 -88.0350 195° South 266 306 8,000 3,927 Climbing FlightAware ADS-B
Wed 10:33:56 PM 41.8350 -88.0340 179° South 275 316 9,800 3,844 Climbing FlightAware ADS-B
Wed 10:34:32 PM 41.7880 -88.0330 179° South 287 330 12,100 3,568 Climbing FlightAware ADS-B
Wed 10:35:10 PM 41.7360 -88.0320 179° South 296 341 14,200 2,889 Climbing FlightAware ADS-B
Wed 10:35:53 PM 41.6740 -88.0320 180° South 329 379 16,000 2,810 Climbing FlightAware ADS-B
Wed 10:36:29 PM 41.6200 -88.0310 179° South 346 398 17,900 2,231 Climbing FlightAware ADS-B
Wed 10:37:11 PM 41.5470 -88.0310 180° South 400 460 18,900 1,482 Climbing FlightAware ADS-B
Wed 10:37:54 PM 41.4610 -88.0300 180° South 443 510 20,000 1,857 Climbing FlightAware ADS-B
Wed 10:38:35 PM 41.3780 -88.0400 185° South 461 531 21,500 2,400 Climbing FlightAware ADS-B
Wed 10:39:19 PM 41.2830 -88.0720 194° South 472 543 23,400 2,512 Climbing FlightAware ADS-B
Wed 10:40:01 PM 41.1950 -88.1060 196° South 480 552 25,100 2,500 Climbing FlightAware ADS-B
Wed 10:40:43 PM 41.1090 -88.1600 205° Southwest 480 552 26,900 2,368 Climbing FlightAware ADS-B
Wed 10:41:17 PM 41.0450 -88.2040 207° Southwest 478 550 28,100 1,636 Climbing FlightAware ADS-B
Wed 10:42:00 PM 40.9600 -88.2620 207° Southwest 462 532 29,000 1,571 Climbing FlightAware ADS-B
Wed 10:42:41 PM 40.8830 -88.3160 208° Southwest 449 517 30,300 2,923 Climbing FlightAware ADS-B
Wed 10:43:18 PM 40.8170 -88.3600 207° Southwest 419 482 32,800 3,351 Climbing FlightAware ADS-B
Wed 10:43:58 PM 40.7500 -88.4060 207° Southwest 397 457 34,600 2,415 Climbing FlightAware ADS-B
Wed 10:44:40 PM 40.6830 -88.4520 208° Southwest 389 448 36,100 1,950 Climbing FlightAware ADS-B
Wed 10:45:18 PM 40.6220 -88.4940 208° Southwest 385 443 37,200 1,624 Climbing FlightAware ADS-B
Wed 10:46:05 PM 40.5480 -88.5430 207° Southwest 380 437 38,400 1,310 Climbing FlightAware ADS-B
Wed 10:46:45 PM 40.4860 -88.5860 208° Southwest 382 440 39,100 857 Climbing FlightAware ADS-B
Wed 10:47:29 PM 40.4160 -88.6330 207° Southwest 393 452 39,600 565 Climbing FlightAware ADS-B
Wed 10:48:10 PM 40.3480 -88.6790 207° Southwest 401 461 39,900 468 Climbing FlightAware ADS-B
Wed 10:48:46 PM 40.2890 -88.7190 207° Southwest 404 465 40,200 400 Climbing FlightAware ADS-B
Wed 10:49:25 PM 40.2250 -88.7620 207° Southwest 414 476 40,400 357 Climbing FlightAware ADS-B
Wed 10:50:10 PM 40.1470 -88.8140 207° Southwest 422 486 40,700 385 Climbing FlightAware ADS-B
Wed 10:50:43 PM 40.0880 -88.8530 207° Southwest 429 494 40,900 237 Climbing FlightAware ADS-B
Wed 10:51:26 PM 40.0100 -88.9050 207° Southwest 431 496 41,000 71 Climbing FlightAware ADS-B
Wed 10:52:07 PM 39.9390 -88.9530 207° Southwest 433 498 41,000  Level FlightAware ADS-B
Wed 10:52:48 PM 39.8650 -89.0020 207° Southwest 434 499 41,000  Level FlightAware ADS-B
Wed 10:53:33 PM 39.7850 -89.0550 207° Southwest 435 501 41,000  Level FlightAware ADS-B
Wed 10:54:11 PM 39.7190 -89.0980 207° Southwest 437 503 41,000  Level FlightAware ADS-B
Wed 10:54:55 PM 39.6370 -89.1530 207° Southwest 438 504 41,000  Level FlightAware ADS-B
Wed 10:55:49 PM 39.5470 -89.2110 206° Southwest 438 504 41,000  Level FlightAware ADS-B
Wed 10:56:35 PM 39.4560 -89.2720 207° Southwest 438 504 41,000  Level FlightAware ADS-B
Wed 10:57:09 PM 39.4030 -89.3050 206° Southwest 439 505 41,000  Level FlightAware ADS-B
Wed 10:58:00 PM 39.3020 -89.3720 207° Southwest 437 503 41,000  Level FlightAware ADS-B
Wed 10:58:55 PM 39.2030 -89.4360 207° Southwest 433 498 41,000  Level FlightAware ADS-B
Wed 10:59:30 PM 39.1410 -89.4770 207° Southwest 432 497 41,000  Level FlightAware ADS-B
Wed 11:00:12 PM 39.0640 -89.5260 206° Southwest 433 498 41,000  Level FlightAware ADS-B
Wed 11:00:50 PM 38.9970 -89.5700 207° Southwest 427 491 41,000  Level FlightAware ADS-B
Wed 11:01:29 PM 38.9290 -89.6130 206° Southwest 426 490 41,000  Level FlightAware ADS-B
Wed 11:02:27 PM 38.8380 -89.6710 206° Southwest 426 490 41,000  Level FlightAware ADS-B
Wed 11:03:03 PM 38.7840 -89.7040 205° Southwest 426 490 41,000  Level FlightAware ADS-B
Wed 11:03:50 PM 38.7130 -89.7490 206° Southwest 426 490 41,000  Level FlightAware ADS-B
Wed 11:04:42 PM 38.5910 -89.8300 207° Southwest 426 490 41,000  Level FlightAware ADS-B
Wed 11:05:42 PM 38.4910 -89.8930 206° Southwest 427 491 41,000  Level FlightAware ADS-B
Wed 11:06:20 PM 38.4160 -89.9400 206° Southwest 432 497 41,000  Level FlightAware ADS-B
Wed 11:06:59 PM 38.3570 -89.9770 206° Southwest 432 497 41,000  Level FlightAware ADS-B
Wed 11:07:35 PM 38.3020 -90.0120 207° Southwest 432 497 41,000  Level FlightAware ADS-B
Wed 11:08:35 PM 38.2100 -90.0690 206° Southwest 432 497 41,000  Level FlightAware ADS-B
Wed 11:09:15 PM 38.0990 -90.1410 207° Southwest 436 502 41,000  Level FlightAware ADS-B
Wed 11:10:08 PM 38.0110 -90.1950 206° Southwest 436 502 41,000  Level FlightAware ADS-B
Wed 11:11:19 PM 37.8860 -90.2730 206° Southwest 438 504 41,000  Level FlightAware ADS-B
Wed 11:12:09 PM 37.8080 -90.3210 206° Southwest 438 504 41,000  Level FlightAware ADS-B
Wed 11:12:45 PM 37.7530 -90.3550 206° Southwest 438 504 41,000  Level FlightAware ADS-B
Wed 11:13:33 PM 37.6780 -90.4010 206° Southwest 438 504 41,000  Level FlightAware ADS-B
Wed 11:14:09 PM 37.6220 -90.4360 206° Southwest 438 504 41,000  Level FlightAware ADS-B
Wed 11:14:56 PM 37.5500 -90.4800 206° Southwest 438 504 41,000  Level FlightAware ADS-B
Wed 11:15:30 PM 37.4970 -90.5130 206° Southwest 438 504 41,000  Level FlightAware ADS-B
Wed 11:16:10 PM 37.4350 -90.5510 206° Southwest 438 504 41,000  Level FlightAware ADS-B
Wed 11:16:59 PM 37.2480 -90.6670 206° Southwest 445 512 41,000  Level FlightAware ADS-B
Wed 11:17:41 PM 37.1690 -90.7150 206° Southwest 444 511 41,000  Level FlightAware ADS-B
Wed 11:18:21 PM 37.0950 -90.7600 206° Southwest 445 512 41,000  Level FlightAware ADS-B
Wed 11:19:05 PM 37.0130 -90.8100 206° Southwest 445 512 41,000  Level FlightAware ADS-B
Wed 11:19:47 PM 36.9360 -90.8570 206° Southwest 444 511 41,000  Level FlightAware ADS-B
Wed 11:20:31 PM 36.8540 -90.9050 205° Southwest 445 512 41,000  Level FlightAware ADS-B
Wed 11:21:13 PM 36.7740 -90.9490 204° Southwest 446 513 41,000  Level FlightAware ADS-B
Wed 11:21:49 PM 36.7080 -90.9860 204° Southwest 446 513 41,000  Level FlightAware ADS-B
Wed 11:22:37 PM 36.6170 -91.0370 204° Southwest 449 517 41,000  Level FlightAware ADS-B
Wed 11:23:18 PM 36.5390 -91.0810 204° Southwest 451 519 41,000  Level FlightAware ADS-B
Wed 11:24:01 PM 36.4580 -91.1270 205° Southwest 452 520 41,000  Level FlightAware ADS-B
Wed 11:24:43 PM 36.3760 -91.1730 204° Southwest 447 514 41,000  Level FlightAware ADS-B
Wed 11:25:21 PM 36.3090 -91.2110 205° Southwest 446 513 41,000  Level FlightAware ADS-B
Wed 11:26:01 PM 36.2310 -91.2540 204° Southwest 446 513 41,000  Level FlightAware ADS-B
Wed 11:27:11 PM 36.1130 -91.3190 204° Southwest 446 513 41,000  Level FlightAware ADS-B
Wed 11:27:36 PM 36.0730 -91.3410 204° Southwest 446 513 41,000  Level FlightAware ADS-B
Wed 11:28:25 PM 35.9590 -91.4050 204° Southwest 444 511 41,000  Level FlightAware ADS-B
Wed 11:29:09 PM 35.8770 -91.4500 204° Southwest 444 511 41,000  Level FlightAware ADS-B
Wed 11:29:51 PM 35.7970 -91.4940 204° Southwest 445 512 41,000  Level FlightAware ADS-B
Wed 11:30:35 PM 35.7250 -91.5340 204° Southwest 445 512 41,000  Level FlightAware ADS-B
Wed 11:31:29 PM 35.6220 -91.5900 204° Southwest 451 519 41,000  Level FlightAware ADS-B
Wed 11:32:05 PM 35.5640 -91.6220 204° Southwest 451 519 41,000  Level FlightAware ADS-B
Wed 11:32:53 PM 35.4860 -91.6640 204° Southwest 451 519 41,000  Level FlightAware ADS-B
Wed 11:33:27 PM 35.4310 -91.6950 205° Southwest 451 519 41,000  Level FlightAware ADS-B
Wed 11:34:16 PM 35.3520 -91.7380 204° Southwest 451 519 41,000  Level FlightAware ADS-B
Wed 11:34:52 PM 35.2940 -91.7700 204° Southwest 451 519 41,000  Level FlightAware ADS-B
Wed 11:35:41 PM 35.2140 -91.8130 204° Southwest 451 519 41,000  Level FlightAware ADS-B
Wed 11:36:17 PM 35.1560 -91.8450 204° Southwest 451 519 41,000  Level FlightAware ADS-B
Wed 11:36:54 PM 35.0960 -91.8770 204° Southwest 451 519 41,000  Level FlightAware ADS-B
Wed 11:37:40 PM 35.0210 -91.9180 204° Southwest 451 519 41,000  Level FlightAware ADS-B
Wed 11:38:17 PM 34.9610 -91.9500 204° Southwest 451 519 41,000  Level FlightAware ADS-B
Wed 11:39:06 PM 34.8820 -91.9940 205° Southwest 451 519 41,000  Level FlightAware ADS-B
Wed 11:39:43 PM 34.8220 -92.0260 204° Southwest 451 519 41,000  Level FlightAware ADS-B
Wed 11:40:20 PM 34.7620 -92.0590 204° Southwest 451 519 41,000  Level FlightAware ADS-B
Wed 11:41:14 PM 34.4953 -92.1942 204° Southwest 461 531 41,000  Level Memphis Center
Wed 11:42:14 PM 34.3794 -92.2572 204° Southwest 461 531 41,000  Level Memphis Center
Wed 11:43:14 PM 34.2594 -92.3222 204° Southwest 461 531 41,000  Level Memphis Center
Wed 11:44:14 PM 34.1417 -92.3850 204° Southwest 461 531 41,000  Level Memphis Center
Wed 11:45:14 PM 34.0133 -92.4547 204° Southwest 461 531 41,000  Level Memphis Center
Wed 11:46:14 PM 33.8933 -92.5167 203° Southwest 461 531 41,000  Level Memphis Center
Wed 11:48:35 PM 33.6139 -92.6597 203° Southwest 471 542 41,000  Level Fort Worth Center
Wed 11:49:35 PM 33.4953 -92.7233 204° Southwest 471 542 41,000  Level Fort Worth Center
Wed 11:50:35 PM 33.3867 -92.7764 202° Southwest 471 542 41,000  Level Fort Worth Center
Wed 11:51:35 PM 33.2678 -92.8372 203° Southwest 471 542 41,000  Level Fort Worth Center
Wed 11:52:35 PM 33.1489 -92.8981 203° Southwest 471 542 41,000  Level Fort Worth Center
Wed 11:53:35 PM 33.0258 -92.9611 203° Southwest 471 542 41,000  Level Fort Worth Center
Wed 11:54:35 PM 32.9050 -93.0217 203° Southwest 471 542 41,000  Level Fort Worth Center
Wed 11:55:35 PM 32.7861 -93.0819 203° Southwest 471 542 41,000  Level Fort Worth Center
Wed 11:56:35 PM 32.6650 -93.1444 203° Southwest 471 542 41,000  Level Fort Worth Center
Wed 11:57:35 PM 32.5439 -93.2044 203° Southwest 471 542 41,000  Level Fort Worth Center
Wed 11:58:35 PM 32.4269 -93.2639 203° Southwest 471 542 41,000  Level Fort Worth Center
Thu 12:04:16 AM 31.7322 -93.6149 203° Southwest 454 522 41,000  Level FlightAware ADS-B
Thu 12:04:53 AM 31.6597 -93.6507 203° Southwest 452 520 41,000  Level FlightAware ADS-B
Thu 12:05:27 AM 31.5953 -93.6826 203° Southwest 452 520 41,000  Level FlightAware ADS-B
Thu 12:06:03 AM 31.5256 -93.7170 203° Southwest 451 519 41,000  Level FlightAware ADS-B
Thu 12:06:36 AM 31.4629 -93.7480 203° Southwest 451 519 41,000 -369 Level FlightAware ADS-B
Thu 12:07:08 AM 31.4012 -93.7784 203° Southwest 440 506 40,600 -1,500 Descending FlightAware ADS-B
Thu 12:07:44 AM 31.3334 -93.8116 203° Southwest 438 504 39,300 -2,123 Descending FlightAware ADS-B
Thu 12:08:13 AM 31.2794 -93.8380 203° Southwest 435 501 38,300 -1,773 Descending FlightAware ADS-B
Thu 12:08:28 AM 31.2538 -93.8528 206° Southwest 422 486 38,000 -1,313 Descending FlightAware ADS-B
Thu 12:08:45 AM 31.2256 -93.8731 212° Southwest 413 475 37,600 -2,170 Descending FlightAware ADS-B
Thu 12:09:15 AM 31.1805 -93.9136 218° Southwest 412 474 36,300 -2,778 Descending FlightAware ADS-B
Thu 12:09:39 AM 31.1443 -93.9470 218° Southwest 414 476 35,100 -3,600 Descending FlightAware ADS-B
Thu 12:10:10 AM 31.0972 -93.9907 218° Southwest 427 491 33,000 -4,230 Descending FlightAware ADS-B
Thu 12:10:40 AM 31.0494 -94.0343 218° Southwest 444 511 30,800 -4,900 Descending FlightAware ADS-B
Thu 12:11:10 AM 30.9989 -94.0809 218° Southwest 463 533 28,100 -4,525 Descending FlightAware ADS-B
Thu 12:11:41 AM 30.9469 -94.1285 218° Southwest 468 539 26,200 -3,541 Descending FlightAware ADS-B
Thu 12:12:11 AM 30.8968 -94.1745 218° Southwest 449 517 24,500 -3,600 Descending FlightAware ADS-B
Thu 12:12:41 AM 30.8479 -94.2192 218° Southwest 437 503 22,600 -3,639 Descending FlightAware ADS-B
Thu 12:13:12 AM 30.8006 -94.2626 218° Southwest 427 491 20,800 -4,033 Descending FlightAware ADS-B
Thu 12:13:42 AM 30.7530 -94.3062 218° Southwest 433 498 18,500 -4,000 Descending FlightAware ADS-B
Thu 12:14:12 AM 30.7058 -94.3495 218° Southwest 425 489 16,800 -3,100 Descending FlightAware ADS-B
Thu 12:14:42 AM 30.6594 -94.3916 218° Southwest 418 481 15,400 -2,800 Descending FlightAware ADS-B
Thu 12:15:12 AM 30.6141 -94.4328 218° Southwest 411 473 14,000 -2,754 Descending FlightAware ADS-B
Thu 12:15:43 AM 30.5689 -94.4736 218° Southwest 405 466 12,600 -2,557 Descending FlightAware ADS-B
Thu 12:16:13 AM 30.5242 -94.5144 218° Southwest 392 451 11,400 -1,672 Descending FlightAware ADS-B
Thu 12:16:44 AM 30.4843 -94.5507 218° Southwest 333 383 10,900 -1,149 Descending FlightAware ADS-B
Thu 12:19:21 AM 30.3138 -94.7032 217° Southwest 290 334 7,800 -1,186 Descending FlightAware ADS-B
Thu 12:19:36 AM 30.2971 -94.7178 217° Southwest 289 333 7,500 -1,258 Descending FlightAware ADS-B
Thu 12:20:23 AM 30.2477 -94.7610 217° Southwest 286 329 6,500 -1,258 Descending FlightAware ADS-B
Thu 12:20:38 AM 30.2318 -94.7749 217° Southwest 284 327 6,200 -1,300 Descending FlightAware ADS-B
Thu 12:21:23 AM 30.1846 -94.8163 217° Southwest 282 325 5,200 -1,263 Descending FlightAware ADS-B
Thu 12:21:54 AM 30.1528 -94.8441 217° Southwest 277 319 4,600 -947 Descending FlightAware ADS-B
Thu 12:22:39 AM 30.1069 -94.8841 217° Southwest 267 307 4,000 -500 Descending FlightAware ADS-B
Thu 12:23:06 AM 30.0818 -94.9060 217° Southwest 244 281 4,000  Level FlightAware ADS-B
Thu 12:23:36 AM 30.0550 -94.9292 217° Southwest 241 277 4,000  Level FlightAware ADS-B
Thu 12:24:20 AM 30.0169 -94.9625 217° Southwest 233 268 4,000  Level FlightAware ADS-B
Thu 12:24:35 AM 30.0039 -94.9740 217° Southwest 233 268 4,000  Level FlightAware ADS-B
Thu 12:24:50 AM 29.9905 -94.9856 218° Southwest 222 255 4,000  Level FlightAware ADS-B
Thu 12:24:53 AM 29.9882 -94.9880 222° Southwest 220 253 4,000  Level FlightAware ADS-B
Thu 12:24:57 AM 29.9856 -94.9913 228° Southwest 218 251 4,000  Level FlightAware ADS-B
Thu 12:25:00 AM 29.9838 -94.9941 233° Southwest 215 247 4,000  Level FlightAware ADS-B
Thu 12:25:03 AM 29.9823 -94.9967 236° Southwest 214 246 4,000  Level FlightAware ADS-B
Thu 12:25:06 AM 29.9809 -94.9999 243° Southwest 211 243 4,000 -600 Level FlightAware ADS-B
Thu 12:25:13 AM 29.9789 -95.0072 255° West 210 242 3,900 -706 Descending FlightAware ADS-B
Thu 12:25:23 AM 29.9774 -95.0182 264° West 209 241 3,800 -632 Descending FlightAware ADS-B
Thu 12:25:32 AM 29.9770 -95.0284 267° West 208 239 3,700 -947 Descending FlightAware ADS-B
Thu 12:25:42 AM 29.9769 -95.0394 269° West 207 238 3,500 -720 Descending FlightAware ADS-B
Thu 12:25:57 AM 29.9771 -95.0560 271° West 206 237 3,400 -387 Descending FlightAware ADS-B
Thu 12:26:13 AM 29.9773 -95.0723 271° West 199 229 3,300 -255 Descending FlightAware ADS-B
Thu 12:26:44 AM 29.9775 -95.1051 270° West 195 224 3,200 -484 Descending FlightAware ADS-B
Thu 12:27:15 AM 29.9776 -95.1364 270° West 189 217 2,800 -913 Descending FlightAware ADS-B
Thu 12:27:30 AM 29.9775 -95.1519 270° West 190 219 2,500 -977 Descending FlightAware ADS-B
Thu 12:27:58 AM 29.9777 -95.1791 271° West 176 203 2,100 -889 Descending FlightAware ADS-B
Thu 12:28:24 AM 29.9776 -95.2021 270° West 170 196 1,700 -828 Descending FlightAware ADS-B
Thu 12:28:27 AM 29.9776 -95.2047 270° West 151 174 1,700 -667 Level FlightAware ADS-B
Thu 12:28:42 AM 29.9776 -95.2166 270° West 148 170 1,500 -774 Descending FlightAware ADS-B
Thu 12:28:58 AM 29.9776 -95.2288 270° West 146 168 1,300 -774 Descending FlightAware ADS-B
Thu 12:29:13 AM 29.9776 -95.2404 270° West 144 166 1,100 -828 Descending FlightAware ADS-B
Thu 12:29:27 AM 29.9776 -95.2514 270° West 142 163 900 -857 Descending FlightAware ADS-B
Thu 12:29:34 AM 29.9776 -95.2565 270° West 141 162 800 -818 Descending FlightAware ADS-B
Thu 12:29:49 AM 29.9776 -95.2676 270° West 139 160 600 -600 Descending FlightAware ADS-B
Thu 12:30:04 AM 29.9776 -95.2788 270° West 137 158 500 -600 Descending FlightAware ADS-B
Thu 12:30:19 AM 29.9776 -95.2897 270° West 137 158 300 -800 Descending FlightAware ADS-B
Thu 12:30:34 AM 29.9776 -95.3008 270° West 138 159 100 -800 Descending FlightAware ADS-B
Thu 12:38:00 AM 29.9833 -95.3333 291° West  Level FlightAware Approximate

Login

Don't have an account? Register now (free) for customized features, flight alerts, and more!